Time;durP1;ratioP1;P1;durP2;ratioP2;P2;SDS_P1;SDS_P2;PMS_P1;PMS_P2;Temp;Humidity;BMP_temperature;BMP_pressure;BME280_temperature;BME280_humidity;BME280_pressure;Samples;Min_cycle;Max_cycle;Signal;HPM_P1;HPM_P2
2024/02/26 00:00:25;;;;;;;2.87;2.47;;;;;;;19.19;49.32;95791.16;5020353;28;20253;-26
2024/02/26 00:02:52;;;;;;;2.90;2.70;;;;;;;19.13;49.29;95786.81;5023520;28;20690;-25
2024/02/26 00:05:18;;;;;;;2.23;2.10;;;;;;;19.16;49.00;95791.94;5028148;28;20623;-26
2024/02/26 00:07:45;;;;;;;2.60;2.40;;;;;;;19.17;49.25;95787.72;5033589;28;20205;-29
2024/02/26 00:10:12;;;;;;;2.50;2.30;;;;;;;19.11;49.52;95772.38;5029744;28;20281;-25
2024/02/26 00:12:39;;;;;;;2.67;2.47;;;;;;;19.16;49.27;95781.75;5027041;28;20285;-26
2024/02/26 00:15:06;;;;;;;2.77;2.57;;;;;;;19.17;49.30;95778.41;5025006;28;20197;-25
2024/02/26 00:17:33;;;;;;;2.50;2.30;;;;;;;19.17;49.24;95782.63;5022618;28;20203;-32
2024/02/26 00:20:01;;;;;;;2.53;2.33;;;;;;;19.16;49.30;95780.94;5020272;28;20707;-26
2024/02/26 00:22:28;;;;;;;3.00;2.70;;;;;;;19.16;49.32;95776.66;5031101;28;20704;-26
2024/02/26 00:24:54;;;;;;;2.60;2.40;;;;;;;19.17;49.25;95778.41;5030535;28;20285;-25
2024/02/26 00:27:21;;;;;;;2.30;2.10;;;;;;;19.18;49.23;95786.88;5027741;28;20234;-25
2024/02/26 00:29:47;;;;;;;2.53;2.33;;;;;;;19.19;49.10;95780.97;5033348;28;20223;-25
2024/02/26 00:32:14;;;;;;;2.63;2.43;;;;;;;19.18;49.19;95779.22;5030150;28;20198;-26
2024/02/26 00:34:41;;;;;;;2.60;2.40;;;;;;;19.18;49.23;95774.13;5027933;28;20225;-25
2024/02/26 00:37:07;;;;;;;3.07;2.80;;;;;;;19.18;49.15;95779.22;5024459;28;20204;-25
2024/02/26 00:39:34;;;;;;;2.57;2.37;;;;;;;19.18;49.20;95779.22;5023198;28;20313;-25
2024/02/26 00:42:00;;;;;;;2.93;2.60;;;;;;;19.17;49.20;95783.50;5029828;28;20211;-26
2024/02/26 00:44:27;;;;;;;2.90;2.60;;;;;;;19.17;49.10;95775.84;5022606;28;20287;-27
2024/02/26 00:46:53;;;;;;;3.03;2.73;;;;;;;19.16;49.16;95770.75;5032858;28;20205;-25
2024/02/26 00:49:20;;;;;;;2.70;2.50;;;;;;;19.16;49.22;95775.84;5029744;28;20666;-25
2024/02/26 00:51:47;;;;;;;2.60;2.40;;;;;;;19.16;49.14;95783.47;5028304;28;20628;-28
2024/02/26 00:54:13;;;;;;;2.67;2.47;;;;;;;19.17;49.07;95780.09;5020860;28;20202;-25
2024/02/26 00:56:40;;;;;;;2.50;2.30;;;;;;;19.17;49.20;95782.63;5022976;28;20246;-27
2024/02/26 00:59:07;;;;;;;2.60;2.40;;;;;;;19.16;49.20;95781.75;5031371;28;20225;-25
2024/02/26 01:01:33;;;;;;;2.50;2.30;;;;;;;19.15;49.09;95782.59;5031543;28;20267;-28
2024/02/26 01:04:00;;;;;;;2.40;2.20;;;;;;;19.17;49.31;95777.53;5015998;28;20672;-27
2024/02/26 01:06:27;;;;;;;2.37;2.17;;;;;;;19.16;49.34;95768.19;5024752;28;20209;-25
2024/02/26 01:08:53;;;;;;;2.70;2.50;;;;;;;19.19;49.23;95770.78;5023185;28;20757;-25
2024/02/26 01:11:20;;;;;;;2.57;2.13;;;;;;;19.19;49.60;95765.69;5022422;28;20683;-25
2024/02/26 01:13:47;;;;;;;2.33;2.13;;;;;;;19.18;49.07;95767.38;5026012;28;20213;-26
2024/02/26 01:16:13;;;;;;;2.80;2.60;;;;;;;19.17;48.94;95768.22;5021630;28;20288;-25
2024/02/26 01:18:40;;;;;;;2.63;2.43;;;;;;;19.14;48.95;95758.00;5029631;28;20566;-27
2024/02/26 01:21:08;;;;;;;2.77;2.57;;;;;;;19.18;49.26;95758.88;5030287;28;20233;-26
2024/02/26 01:23:35;;;;;;;2.80;2.60;;;;;;;19.17;49.05;95768.22;5020698;28;20205;-25
2024/02/26 01:26:03;;;;;;;2.60;2.40;;;;;;;19.15;49.12;95762.25;5018557;28;20202;-29
2024/02/26 01:28:29;;;;;;;2.73;2.50;;;;;;;19.16;49.23;95763.09;5027942;28;20209;-25
2024/02/26 01:30:56;;;;;;;2.90;2.60;;;;;;;19.13;49.06;95755.44;5023557;28;20708;-25
2024/02/26 01:33:23;;;;;;;2.70;2.50;;;;;;;19.15;48.97;95767.34;5025557;28;20201;-25
2024/02/26 01:35:49;;;;;;;2.80;2.60;;;;;;;19.13;49.09;95771.53;5026403;28;20208;-26
2024/02/26 01:38:16;;;;;;;3.30;2.83;;;;;;;19.15;48.97;95774.97;5023600;28;20230;-25
2024/02/26 01:40:43;;;;;;;2.80;2.50;;;;;;;19.15;48.73;95766.47;5028231;28;20268;-25
2024/02/26 01:43:09;;;;;;;2.63;2.43;;;;;;;19.14;49.07;95774.94;5025429;28;20252;-25
2024/02/26 01:45:36;;;;;;;2.70;2.50;;;;;;;19.15;49.22;95774.97;5023979;28;20228;-25
2024/02/26 01:48:02;;;;;;;2.80;2.60;;;;;;;19.15;49.16;95764.78;5017051;28;20202;-25
2024/02/26 01:50:29;;;;;;;2.87;2.60;;;;;;;19.16;49.13;95765.66;5027386;28;20233;-34
2024/02/26 01:52:56;;;;;;;2.40;2.20;;;;;;;19.17;49.06;95765.66;5024769;28;20194;-25
2024/02/26 01:55:22;;;;;;;2.97;2.70;;;;;;;19.15;49.17;95759.69;5022397;28;20206;-25
2024/02/26 01:57:50;;;;;;;2.83;2.63;;;;;;;19.12;48.94;95744.38;5028326;28;20244;-25
2024/02/26 02:00:16;;;;;;;2.97;2.67;;;;;;;19.14;49.15;95752.03;5012972;28;20221;-25
2024/02/26 02:02:46;;;;;;;2.97;2.77;;;;;;;19.10;48.91;95742.66;5011973;28;20225;-25
2024/02/26 02:05:17;;;;;;;3.07;2.87;;;;;;;19.13;48.93;95756.25;5005591;28;20202;-25
2024/02/26 02:07:44;;;;;;;2.87;2.63;;;;;;;19.13;49.17;95755.44;5030132;28;20206;-25
2024/02/26 02:10:11;;;;;;;2.93;2.73;;;;;;;19.13;49.54;95760.53;5023334;28;20225;-25
2024/02/26 02:12:39;;;;;;;2.93;2.70;;;;;;;19.13;49.17;95761.34;5027944;28;20271;-25
2024/02/26 02:15:07;;;;;;;3.00;2.80;;;;;;;19.12;49.01;95757.13;5027076;28;20201;-26
2024/02/26 02:17:33;;;;;;;3.17;2.87;;;;;;;19.09;48.95;95749.44;5023177;28;20198;-25
2024/02/26 02:20:00;;;;;;;3.13;2.80;;;;;;;19.12;48.98;95752.03;5012222;28;20228;-25
2024/02/26 02:22:27;;;;;;;2.90;2.70;;;;;;;19.12;49.15;95748.63;5031636;28;20585;-26
2024/02/26 02:24:54;;;;;;;2.90;2.63;;;;;;;19.13;49.11;95747.78;5031102;28;20557;-25
2024/02/26 02:27:20;;;;;;;2.90;2.70;;;;;;;19.13;49.00;95748.63;5030277;28;20292;-25
2024/02/26 02:29:47;;;;;;;2.97;2.53;;;;;;;19.11;49.14;95740.16;5023463;28;20236;-27
2024/02/26 02:32:14;;;;;;;3.20;2.90;;;;;;;19.15;49.15;95741.88;5025342;28;20199;-25
2024/02/26 02:34:41;;;;;;;2.80;2.60;;;;;;;19.15;49.04;95730.81;5012600;28;20206;-25
2024/02/26 02:37:07;;;;;;;3.23;2.93;;;;;;;19.15;48.94;95733.38;5008956;28;20284;-26
2024/02/26 02:39:34;;;;;;;3.10;2.80;;;;;;;19.13;49.17;95725.72;5030124;28;20249;-25
2024/02/26 02:42:00;;;;;;;3.10;2.80;;;;;;;19.12;48.81;95728.25;5026796;28;20704;-26
2024/02/26 02:44:27;;;;;;;3.60;3.30;;;;;;;19.12;48.73;95728.25;5029653;28;20221;-25
2024/02/26 02:46:54;;;;;;;3.50;3.20;;;;;;;19.12;48.93;95718.94;5027342;28;20576;-33
2024/02/26 02:49:20;;;;;;;3.33;3.07;;;;;;;19.12;48.95;95725.69;5031024;28;20241;-26
2024/02/26 02:51:47;;;;;;;3.73;3.43;;;;;;;19.11;48.88;95726.56;5027005;28;20202;-26
2024/02/26 02:54:13;;;;;;;3.83;3.43;;;;;;;19.12;48.96;95735.88;5022410;28;20248;-25
2024/02/26 02:56:40;;;;;;;3.03;2.73;;;;;;;19.13;48.96;95735.06;5027592;28;20209;-26
2024/02/26 02:59:07;;;;;;;3.23;2.93;;;;;;;19.11;48.94;95732.50;5026457;28;20700;-25
2024/02/26 03:01:33;;;;;;;3.33;2.90;;;;;;;19.11;49.01;95736.72;5029733;28;20292;-25
2024/02/26 03:04:00;;;;;;;3.63;3.27;;;;;;;19.08;48.90;95735.03;5029520;28;20671;-27
2024/02/26 03:06:28;;;;;;;3.20;2.90;;;;;;;19.13;49.01;95741.00;5030072;28;20202;-27
2024/02/26 03:08:55;;;;;;;3.37;3.07;;;;;;;19.13;49.37;95735.91;5022763;28;20202;-26
2024/02/26 03:11:21;;;;;;;3.73;3.10;;;;;;;19.13;49.06;95733.34;5030796;28;20601;-25
2024/02/26 03:13:48;;;;;;;3.43;3.13;;;;;;;19.13;49.13;95730.81;5031453;28;20194;-25
2024/02/26 03:16:14;;;;;;;3.53;3.23;;;;;;;19.14;48.80;95731.69;5025172;28;20295;-27
2024/02/26 03:18:41;;;;;;;3.50;3.20;;;;;;;19.14;48.62;95731.69;5019563;28;20197;-26
2024/02/26 03:21:08;;;;;;;3.13;2.93;;;;;;;19.13;48.83;95732.53;5028175;28;20229;-32
2024/02/26 03:23:37;;;;;;;3.53;3.23;;;;;;;19.13;48.96;95725.72;5025564;28;20228;-26
2024/02/26 03:26:04;;;;;;;3.33;3.03;;;;;;;19.13;49.21;95719.78;5032563;28;20200;-28
2024/02/26 03:28:32;;;;;;;3.57;3.27;;;;;;;19.13;49.07;95717.25;5028448;28;20255;-25
2024/02/26 03:31:00;;;;;;;3.33;3.03;;;;;;;19.12;48.92;95716.38;5021748;28;20222;-25
2024/02/26 03:33:27;;;;;;;3.20;2.90;;;;;;;19.10;48.92;95724.84;5032473;28;20227;-26
2024/02/26 03:35:53;;;;;;;3.90;3.43;;;;;;;19.12;48.91;95729.09;5024684;28;20455;-25
2024/02/26 03:38:20;;;;;;;3.37;3.07;;;;;;;19.12;48.96;95715.50;5032502;28;20300;-25
2024/02/26 03:40:47;;;;;;;3.30;3.00;;;;;;;19.12;48.94;95721.47;5033889;28;20233;-27
2024/02/26 03:43:13;;;;;;;3.97;3.57;;;;;;;19.12;48.91;95724.03;5029086;28;20221;-26
2024/02/26 03:45:40;;;;;;;3.30;3.00;;;;;;;19.12;49.27;95729.09;5031147;28;20355;-27
2024/02/26 03:48:07;;;;;;;3.87;3.37;;;;;;;19.13;48.92;95732.53;5032071;28;20205;-27
2024/02/26 03:50:34;;;;;;;3.93;3.57;;;;;;;19.11;48.99;95732.50;5032811;28;20226;-25
2024/02/26 03:53:01;;;;;;;3.77;3.43;;;;;;;19.14;48.96;95727.44;5025946;28;20202;-25
2024/02/26 03:55:27;;;;;;;3.70;3.40;;;;;;;19.13;48.94;95725.72;5025958;28;20197;-27
2024/02/26 03:57:54;;;;;;;4.00;3.70;;;;;;;19.12;48.67;95711.28;5032644;28;20676;-25
2024/02/26 04:00:20;;;;;;;4.43;3.67;;;;;;;19.13;49.01;95719.78;5020870;28;20303;-25
2024/02/26 04:02:49;;;;;;;4.10;3.70;;;;;;;19.13;48.66;95715.53;5034176;28;20217;-25
2024/02/26 04:05:15;;;;;;;3.87;3.47;;;;;;;19.13;48.94;95720.63;5025977;28;20198;-25
2024/02/26 04:07:42;;;;;;;3.77;3.47;;;;;;;19.13;48.58;95725.72;5020709;28;20746;-25
2024/02/26 04:10:09;;;;;;;3.40;3.10;;;;;;;19.12;48.84;95724.03;5032374;28;20283;-25
2024/02/26 04:12:41;;;;;;;3.87;3.57;;;;;;;19.04;48.79;95705.25;5025322;28;20198;-26
2024/02/26 04:15:09;;;;;;;4.00;3.60;;;;;;;19.13;48.71;95727.44;5033500;28;20205;-25
2024/02/26 04:17:36;;;;;;;4.03;3.63;;;;;;;19.12;48.89;95724.03;5033320;28;20204;-27
2024/02/26 04:20:05;;;;;;;4.10;3.63;;;;;;;19.13;48.73;95727.44;5028643;28;20325;-25
2024/02/26 04:22:32;;;;;;;4.03;3.67;;;;;;;19.13;48.83;95727.44;5023478;28;20253;-25
2024/02/26 04:25:00;;;;;;;4.03;3.67;;;;;;;19.12;49.20;95735.88;5030564;28;20668;-25
2024/02/26 04:27:26;;;;;;;3.90;3.50;;;;;;;19.13;48.85;95742.69;5025523;28;20208;-25
2024/02/26 04:29:53;;;;;;;3.43;3.13;;;;;;;19.13;48.93;95751.19;5033187;28;20226;-26
2024/02/26 04:32:20;;;;;;;3.67;3.37;;;;;;;19.14;48.88;95757.13;5030614;28;20252;-26
2024/02/26 04:34:47;;;;;;;3.80;3.33;;;;;;;19.14;48.99;95755.44;5024806;28;20260;-25
2024/02/26 04:37:14;;;;;;;3.67;3.37;;;;;;;19.14;48.75;95745.28;5021954;28;20201;-25
2024/02/26 04:39:40;;;;;;;3.40;3.10;;;;;;;19.14;48.91;95750.34;5027813;28;20728;-25
2024/02/26 04:42:07;;;;;;;3.90;3.57;;;;;;;19.14;48.95;95745.28;5022188;28;20289;-26
2024/02/26 04:44:33;;;;;;;3.83;3.50;;;;;;;19.14;48.81;95746.94;5021403;28;20290;-25
2024/02/26 04:47:01;;;;;;;4.27;3.97;;;;;;;19.13;48.98;95750.34;5022454;28;20202;-25
2024/02/26 04:49:28;;;;;;;4.03;3.63;;;;;;;19.11;49.23;95752.00;5029500;28;20226;-25
2024/02/26 04:51:55;;;;;;;3.93;3.53;;;;;;;19.11;48.98;95744.38;5023853;28;20194;-25
2024/02/26 04:54:21;;;;;;;3.93;3.53;;;;;;;19.12;48.48;95749.47;5026602;28;20206;-26
2024/02/26 04:56:48;;;;;;;4.40;4.00;;;;;;;19.13;48.76;95745.25;5026957;28;20289;-25
2024/02/26 04:59:15;;;;;;;4.27;3.87;;;;;;;19.12;48.95;95743.53;5025973;28;20500;-25
2024/02/26 05:01:41;;;;;;;4.10;3.70;;;;;;;19.12;48.65;95744.38;5031700;28;20664;-29
2024/02/26 05:04:08;;;;;;;4.40;3.80;;;;;;;19.01;48.80;95735.78;5032056;28;20272;-25
2024/02/26 05:06:36;;;;;;;3.90;3.53;;;;;;;19.13;48.92;95756.25;5032371;28;20202;-25
2024/02/26 05:09:03;;;;;;;4.20;3.80;;;;;;;19.15;48.73;95759.69;5023401;28;20197;-25
2024/02/26 05:11:30;;;;;;;4.13;3.30;;;;;;;19.14;47.86;95752.03;5032074;28;20206;-25
2024/02/26 05:13:57;;;;;;;4.40;3.80;;;;;;;19.15;48.01;95758.84;5032045;28;20198;-25
2024/02/26 05:16:24;;;;;;;3.93;3.53;;;;;;;19.16;48.39;95760.56;5029185;28;20691;-25
2024/02/26 05:18:51;;;;;;;3.67;3.37;;;;;;;19.16;48.57;95758.00;5024078;28;20206;-25
2024/02/26 05:21:18;;;;;;;4.80;3.77;;;;;;;19.15;48.48;95759.69;5028766;28;20209;-34
2024/02/26 05:23:45;;;;;;;4.40;4.00;;;;;;;19.14;48.87;95750.34;5031624;28;20245;-27
2024/02/26 05:26:11;;;;;;;3.97;3.67;;;;;;;19.09;48.61;95734.16;5031135;28;20604;-26
2024/02/26 05:28:39;;;;;;;4.50;4.10;;;;;;;19.16;47.88;95746.13;5028036;28;20673;-25
2024/02/26 05:31:06;;;;;;;4.20;3.80;;;;;;;19.16;48.54;95740.19;5025196;28;20225;-25
2024/02/26 05:33:32;;;;;;;4.10;3.70;;;;;;;19.17;48.52;95746.97;5026189;28;20630;-25
2024/02/26 05:36:03;;;;;;;3.90;3.50;;;;;;;19.16;48.62;95752.91;5031281;28;20198;-26
2024/02/26 05:38:31;;;;;;;4.33;3.93;;;;;;;19.15;48.57;95746.97;5027011;28;20202;-26
2024/02/26 05:40:58;;;;;;;4.10;3.70;;;;;;;19.12;48.64;95740.97;5021225;28;20633;-26
2024/02/26 05:43:29;;;;;;;4.30;3.50;;;;;;;19.16;48.77;95746.13;5020619;28;20222;-26
2024/02/26 05:45:56;;;;;;;4.17;3.83;;;;;;;19.16;48.73;95743.56;5020405;28;20202;-25
2024/02/26 05:48:22;;;;;;;3.77;3.47;;;;;;;19.17;48.66;95757.16;5021774;28;20253;-25
2024/02/26 05:50:49;;;;;;;4.20;3.80;;;;;;;19.18;48.36;95763.94;5026382;28;20218;-27
2024/02/26 05:53:16;;;;;;;4.23;3.83;;;;;;;19.16;48.62;95763.09;5029223;28;20194;-26
2024/02/26 05:55:42;;;;;;;4.03;3.63;;;;;;;19.16;48.34;95768.19;5031412;28;20542;-25
2024/02/26 05:58:09;;;;;;;4.37;3.97;;;;;;;19.16;48.61;95765.66;5026101;28;20201;-25
2024/02/26 06:00:36;;;;;;;4.30;3.90;;;;;;;19.16;48.94;95775.84;5029695;28;20298;-30
2024/02/26 06:03:03;;;;;;;4.67;4.00;;;;;;;19.14;48.63;95780.91;5031140;28;20221;-25
2024/02/26 06:05:30;;;;;;;4.43;4.03;;;;;;;19.15;48.47;95774.09;5030929;28;20197;-25
2024/02/26 06:07:58;;;;;;;6.17;5.50;;;;;;;19.14;47.31;95780.03;5030894;28;20216;-26
2024/02/26 06:10:24;;;;;;;6.47;5.87;;;;;;;19.12;47.05;95785.13;5030937;28;20226;-25
2024/02/26 06:12:51;;;;;;;7.03;6.30;;;;;;;19.14;46.70;95792.78;5025613;28;20252;-25
2024/02/26 06:15:17;;;;;;;7.10;6.27;;;;;;;19.13;46.83;95799.56;5031626;28;20645;-25
2024/02/26 06:17:44;;;;;;;8.67;7.37;;;;;;;19.12;46.08;95800.41;5031142;28;20197;-25
2024/02/26 06:20:12;;;;;;;8.80;7.90;;;;;;;19.13;45.56;95804.63;5029849;28;20608;-27
2024/02/26 06:22:42;;;;;;;10.37;9.27;;;;;;;19.11;44.61;95796.16;5025966;28;20222;-25
2024/02/26 06:25:09;;;;;;;9.73;8.73;;;;;;;19.11;44.95;95803.78;5031174;28;20201;-25
2024/02/26 06:27:36;;;;;;;10.77;9.47;;;;;;;19.12;45.77;95809.72;5031489;28;20198;-26
2024/02/26 06:30:03;;;;;;;10.20;8.73;;;;;;;19.01;45.48;95807.03;5029781;28;20573;-25
2024/02/26 06:32:29;;;;;;;10.37;9.27;;;;;;;19.10;45.75;95829.22;5021406;28;20289;-25
2024/02/26 06:34:56;;;;;;;11.30;9.67;;;;;;;19.09;45.58;95825.81;5030711;28;20723;-25
2024/02/26 06:37:23;;;;;;;10.47;9.33;;;;;;;19.08;45.78;95821.56;5027931;28;20197;-25
2024/02/26 06:39:51;;;;;;;11.70;9.33;;;;;;;19.08;46.05;95813.06;5026424;28;20213;-25
2024/02/26 06:42:18;;;;;;;9.87;8.87;;;;;;;19.09;46.20;95825.81;5028808;28;20209;-26
2024/02/26 06:44:45;;;;;;;10.23;8.27;;;;;;;19.08;46.57;95836.84;5030567;28;20224;-25
2024/02/26 06:47:12;;;;;;;11.77;9.10;;;;;;;19.09;46.73;95841.09;5021288;28;20692;-27
2024/02/26 06:49:38;;;;;;;9.10;8.13;;;;;;;19.07;46.43;95836.84;5026819;28;20656;-25
2024/02/26 06:52:06;;;;;;;10.00;8.50;;;;;;;19.10;46.87;95841.97;5024893;28;20193;-25
2024/02/26 06:54:32;;;;;;;9.53;8.63;;;;;;;19.09;46.55;95847.88;5032155;28;20202;-25
2024/02/26 06:56:59;;;;;;;10.63;9.50;;;;;;;19.09;44.73;95840.22;5034584;28;20227;-25
2024/02/26 06:59:26;;;;;;;10.83;9.73;;;;;;;19.08;45.34;95843.63;5024949;28;20774;-25
2024/02/26 07:01:54;;;;;;;11.50;9.70;;;;;;;19.06;45.92;95833.41;5029691;28;20224;-25
2024/02/26 07:04:21;;;;;;;13.20;10.07;;;;;;;19.04;45.91;95831.72;5026356;28;20704;-26
2024/02/26 07:06:47;;;;;;;10.77;8.80;;;;;;;19.05;46.29;95836.81;5025591;28;20288;-25
2024/02/26 07:09:15;;;;;;;8.80;7.90;;;;;;;19.07;46.89;95842.75;5027906;28;20268;-25
2024/02/26 07:11:42;;;;;;;9.50;7.67;;;;;;;19.06;47.06;95847.84;5030212;28;20245;-25
2024/02/26 07:14:10;;;;;;;6.93;6.23;;;;;;;19.07;47.22;95855.50;5028424;28;20233;-26
2024/02/26 07:16:36;;;;;;;7.17;6.47;;;;;;;19.08;47.81;95856.34;5031447;28;20202;-28
2024/02/26 07:19:03;;;;;;;7.27;5.70;;;;;;;19.06;47.78;95853.78;5032681;28;20201;-26
2024/02/26 07:21:30;;;;;;;6.30;5.70;;;;;;;19.07;47.61;95849.56;5025610;28;20194;-26
2024/02/26 07:23:57;;;;;;;7.20;6.20;;;;;;;19.07;47.58;95852.09;5028549;28;20223;-25
2024/02/26 07:26:25;;;;;;;6.00;5.33;;;;;;;19.08;47.89;95852.13;5031448;28;20229;-26
2024/02/26 07:28:52;;;;;;;6.40;5.80;;;;;;;19.07;47.60;95852.09;5029916;28;20718;-25
2024/02/26 07:31:19;;;;;;;7.03;5.57;;;;;;;19.09;47.53;95855.50;5026240;28;20224;-25
2024/02/26 07:33:45;;;;;;;5.27;4.73;;;;;;;19.06;47.98;95852.94;5025930;28;20240;-25
2024/02/26 07:36:12;;;;;;;6.83;6.17;;;;;;;19.07;47.96;95857.19;5024942;28;20250;-27
2024/02/26 07:38:39;;;;;;;9.10;5.80;;;;;;;19.06;47.96;95874.16;5030638;28;20205;-26
2024/02/26 07:41:09;;;;;;;5.90;5.30;;;;;;;19.05;47.95;95871.59;5026499;28;20252;-26
2024/02/26 07:43:36;;;;;;;6.77;6.07;;;;;;;19.04;48.26;95878.38;5023894;28;20217;-29
2024/02/26 07:46:03;;;;;;;5.87;5.17;;;;;;;19.06;48.08;95888.56;5031021;28;20320;-28
2024/02/26 07:48:29;;;;;;;6.83;5.47;;;;;;;19.06;48.20;95883.47;5023903;28;20683;-26
2024/02/26 07:50:58;;;;;;;5.53;5.03;;;;;;;19.05;48.21;95891.97;5021551;28;20240;-26
2024/02/26 07:53:26;;;;;;;5.97;5.03;;;;;;;19.05;48.15;95886.88;5026006;28;20220;-25
2024/02/26 07:55:52;;;;;;;5.63;5.03;;;;;;;19.02;48.18;95885.16;5029019;28;20202;-26
2024/02/26 07:58:19;;;;;;;5.87;5.20;;;;;;;19.05;48.01;95885.19;5026033;28;20256;-26
2024/02/26 08:00:46;;;;;;;5.90;5.27;;;;;;;19.05;48.11;95885.19;5028101;28;20279;-25
2024/02/26 08:03:15;;;;;;;5.63;5.10;;;;;;;19.07;48.19;95869.94;5028905;28;20221;-28
2024/02/26 08:05:43;;;;;;;7.57;5.47;;;;;;;19.06;48.18;95873.28;5029011;28;20233;-26
2024/02/26 08:08:09;;;;;;;5.33;4.83;;;;;;;19.07;48.29;95873.31;5029944;28;20252;-26
2024/02/26 08:10:36;;;;;;;5.60;5.10;;;;;;;19.06;48.19;95876.69;5029295;28;20232;-27
2024/02/26 08:13:06;;;;;;;5.37;4.87;;;;;;;19.06;48.29;95871.59;5031397;28;20448;-29
2024/02/26 08:15:34;;;;;;;5.57;5.07;;;;;;;19.04;48.32;95862.25;5028159;28;20221;-26
2024/02/26 08:18:04;;;;;;;5.93;5.20;;;;;;;19.06;48.49;95863.97;5030830;28;20224;-25
2024/02/26 08:20:31;;;;;;;5.83;5.00;;;;;;;19.06;48.28;95858.00;5029559;28;20237;-25
2024/02/26 08:22:58;;;;;;;5.43;4.67;;;;;;;19.07;48.37;95844.47;5031845;28;20752;-25
2024/02/26 08:25:25;;;;;;;4.93;4.43;;;;;;;19.06;48.15;95835.09;5032021;28;20227;-25
2024/02/26 08:27:51;;;;;;;6.00;5.40;;;;;;;19.07;48.37;95829.19;5040758;28;20201;-26
2024/02/26 08:30:18;;;;;;;5.83;4.87;;;;;;;19.01;48.34;95826.56;5023924;28;20221;-27
2024/02/26 08:32:45;;;;;;;5.40;4.83;;;;;;;19.03;48.29;95846.13;5022469;28;20209;-27
2024/02/26 08:35:17;;;;;;;5.00;4.50;;;;;;;19.07;48.32;95845.31;5029185;28;20263;-25
2024/02/26 08:37:45;;;;;;;5.30;4.80;;;;;;;19.06;48.25;95835.97;5028648;28;20665;-26
2024/02/26 08:40:12;;;;;;;5.33;4.83;;;;;;;19.08;48.79;95834.31;5027567;28;20229;-25
2024/02/26 08:42:38;;;;;;;6.20;4.93;;;;;;;19.10;48.34;95847.06;5030652;28;20217;-26
2024/02/26 08:45:07;;;;;;;5.40;4.90;;;;;;;19.10;48.38;95842.78;5028303;28;20783;-26
2024/02/26 08:47:33;;;;;;;4.97;4.47;;;;;;;19.10;48.63;95844.50;5025959;28;20490;-25
2024/02/26 08:50:00;;;;;;;5.17;4.20;;;;;;;19.09;48.40;95847.88;5027074;28;20221;-27
2024/02/26 08:52:27;;;;;;;4.80;4.40;;;;;;;19.05;48.33;95838.50;5027340;28;20201;-28
2024/02/26 08:54:53;;;;;;;5.33;4.77;;;;;;;19.10;48.32;95840.25;5029519;28;20209;-25
2024/02/26 08:57:20;;;;;;;4.60;4.20;;;;;;;19.09;48.40;95842.78;5026857;28;20656;-27
2024/02/26 08:59:47;;;;;;;5.13;4.13;;;;;;;19.11;48.60;95847.06;5026027;28;20279;-25
2024/02/26 09:02:13;;;;;;;4.77;4.27;;;;;;;19.11;48.06;95841.13;5029259;28;20213;-26
2024/02/26 09:04:40;;;;;;;5.23;4.63;;;;;;;19.10;48.23;95844.50;5027403;28;20300;-25
2024/02/26 09:07:07;;;;;;;4.83;4.33;;;;;;;19.10;48.31;95841.97;5027800;28;20293;-28
2024/02/26 09:09:33;;;;;;;4.90;4.43;;;;;;;19.10;48.41;95850.44;5028846;28;20718;-25
2024/02/26 09:12:00;;;;;;;5.00;4.50;;;;;;;19.11;48.54;95856.38;5030270;28;20229;-26
2024/02/26 09:14:27;;;;;;;4.83;4.27;;;;;;;19.10;48.31;95865.72;5026926;28;20661;-29
2024/02/26 09:16:54;;;;;;;5.57;4.30;;;;;;;19.05;48.46;95872.47;5027847;28;20677;-30
2024/02/26 09:19:20;;;;;;;5.10;4.60;;;;;;;19.10;48.57;95893.72;5028161;28;20735;-25
2024/02/26 09:21:47;;;;;;;4.17;3.70;;;;;;;19.07;48.25;95908.94;5026993;28;20202;-25
2024/02/26 09:24:14;;;;;;;4.40;3.80;;;;;;;19.11;48.59;95912.41;5029024;28;20256;-27
2024/02/26 09:26:41;;;;;;;4.07;3.70;;;;;;;19.11;48.52;95915.81;5028517;28;20252;-25
2024/02/26 09:29:08;;;;;;;4.73;4.10;;;;;;;19.12;48.62;95930.25;5010077;28;20231;-26
2024/02/26 09:31:35;;;;;;;4.73;4.33;;;;;;;19.11;48.54;95933.63;5027426;28;20280;-25
2024/02/26 09:34:02;;;;;;;4.20;3.63;;;;;;;19.06;48.69;95931.84;5028136;28;20256;-25
2024/02/26 09:36:29;;;;;;;4.57;4.00;;;;;;;19.08;48.67;95933.59;5026350;28;20289;-28
2024/02/26 09:38:56;;;;;;;4.30;3.90;;;;;;;19.13;48.47;95941.31;5027364;28;20206;-28
2024/02/26 09:41:30;;;;;;;4.77;4.27;;;;;;;19.13;48.58;95939.59;5024020;28;20233;-26
2024/02/26 09:43:57;;;;;;;4.37;3.97;;;;;;;19.11;48.49;95927.69;5024113;28;20221;-26
2024/02/26 09:46:25;;;;;;;4.40;4.00;;;;;;;19.11;48.56;95926.00;5029890;28;20691;-25
2024/02/26 09:48:51;;;;;;;4.40;3.97;;;;;;;19.13;48.45;95933.66;5027473;28;20197;-26
2024/02/26 09:51:18;;;;;;;6.33;3.90;;;;;;;19.10;48.76;95918.34;5025389;28;20198;-25
2024/02/26 09:53:45;;;;;;;4.27;3.87;;;;;;;19.12;48.53;95919.19;5022622;28;20193;-27
2024/02/26 09:56:15;;;;;;;4.43;4.03;;;;;;;19.11;48.67;95913.28;5012339;28;20240;-27
2024/02/26 09:58:41;;;;;;;4.80;3.97;;;;;;;19.12;48.34;95909.00;5027947;28;20210;-26
2024/02/26 10:01:11;;;;;;;3.70;3.40;;;;;;;19.11;48.60;95908.19;5007937;28;20333;-25
2024/02/26 10:03:40;;;;;;;3.70;3.40;;;;;;;19.11;48.57;95892.03;5027316;28;20267;-25
2024/02/26 10:06:09;;;;;;;4.20;3.80;;;;;;;19.12;48.71;95896.28;5025518;28;20221;-26
2024/02/26 10:08:39;;;;;;;4.03;3.60;;;;;;;19.11;48.69;95885.25;5018161;28;20206;-30
2024/02/26 10:11:07;;;;;;;4.37;3.77;;;;;;;19.12;48.54;95897.16;5026310;28;20225;-28
2024/02/26 10:13:35;;;;;;;3.80;3.50;;;;;;;19.10;48.49;95897.97;5022510;28;20249;-27
2024/02/26 10:16:03;;;;;;;4.10;3.70;;;;;;;19.05;48.70;95889.41;5024299;28;20202;-25
2024/02/26 10:18:46;;;;;;;4.00;3.67;;;;;;;19.12;48.65;95892.06;5023208;28;20272;-27
2024/02/26 10:21:25;;;;;;;4.13;3.30;;;;;;;19.10;48.48;95891.16;5025554;28;20753;-25
2024/02/26 10:23:51;;;;;;;3.90;3.50;;;;;;;19.06;48.62;95886.88;5026712;28;20217;-25
2024/02/26 10:26:18;;;;;;;4.03;3.63;;;;;;;19.13;48.72;95898.84;5026479;28;20263;-28
2024/02/26 10:28:45;;;;;;;3.73;3.43;;;;;;;19.11;48.59;95902.22;5024276;28;20197;-26
2024/02/26 10:31:14;;;;;;;4.30;3.90;;;;;;;19.11;48.69;95894.59;5030164;28;20288;-25
2024/02/26 10:33:41;;;;;;;4.00;3.60;;;;;;;19.09;48.57;95891.16;5028680;28;20202;-26
2024/02/26 10:36:09;;;;;;;3.40;3.10;;;;;;;19.12;48.53;95883.56;5031066;28;20358;-26
2024/02/26 10:38:36;;;;;;;3.73;3.40;;;;;;;19.12;48.74;95893.75;5029794;28;20203;-27
2024/02/26 10:41:04;;;;;;;4.40;4.00;;;;;;;19.11;47.52;95881.84;5029278;28;20253;-28
2024/02/26 10:43:30;;;;;;;8.40;4.37;;;;;;;19.11;47.95;95889.50;5029928;28;20214;-26
2024/02/26 10:45:57;;;;;;;4.23;3.83;;;;;;;19.09;47.98;95891.16;5029803;28;20217;-29
2024/02/26 10:48:24;;;;;;;4.93;4.43;;;;;;;19.10;46.90;95881.00;5029427;28;20578;-25
2024/02/26 10:50:51;;;;;;;6.37;5.70;;;;;;;19.13;45.00;95878.47;5031850;28;20259;-34
2024/02/26 10:53:19;;;;;;;7.27;5.23;;;;;;;19.08;46.06;95869.94;5031900;28;20653;-25
2024/02/26 10:55:54;;;;;;;5.27;4.77;;;;;;;19.09;46.73;95878.41;5029526;28;20202;-27
2024/02/26 10:58:21;;;;;;;6.80;4.87;;;;;;;19.09;47.28;95878.41;5027312;28;20279;-26
2024/02/26 11:00:49;;;;;;;5.60;5.10;;;;;;;19.08;47.69;95890.31;5029357;28;20229;-28
2024/02/26 11:03:17;;;;;;;6.33;4.73;;;;;;;19.09;47.64;95893.69;5014891;28;20206;-25
2024/02/26 11:05:44;;;;;;;4.60;4.20;;;;;;;19.09;47.76;95891.16;5014353;28;20213;-25
2024/02/26 11:08:11;;;;;;;4.50;4.10;;;;;;;19.09;47.45;95886.94;5029011;28;20201;-27
2024/02/26 11:10:38;;;;;;;4.83;4.30;;;;;;;19.09;48.00;95894.56;5025831;28;20229;-28
2024/02/26 11:13:05;;;;;;;4.93;4.43;;;;;;;19.10;47.53;95906.44;5029399;28;20212;-26
2024/02/26 11:15:32;;;;;;;5.07;4.07;;;;;;;19.08;48.15;95907.28;5027295;28;20227;-26
2024/02/26 11:17:59;;;;;;;4.77;4.20;;;;;;;19.10;47.68;95903.06;5031952;28;20201;-25
2024/02/26 11:20:29;;;;;;;5.53;4.70;;;;;;;19.06;47.84;95897.06;5029833;28;20241;-25
2024/02/26 11:22:55;;;;;;;5.20;4.33;;;;;;;19.09;48.49;95904.75;5030401;28;20267;-26
2024/02/26 11:25:22;;;;;;;4.27;3.87;;;;;;;19.12;48.15;95909.88;5030642;28;20257;-25
2024/02/26 11:27:52;;;;;;;5.60;4.33;;;;;;;19.12;48.01;95917.53;5027784;28;20236;-30
2024/02/26 11:30:19;;;;;;;4.43;3.93;;;;;;;19.07;48.14;95905.56;5026195;28;20229;-26
2024/02/26 11:32:46;;;;;;;4.50;4.10;;;;;;;19.13;48.23;95910.75;5029166;28;20221;-28